Database: COMPET-N - COOP - 3PL - 4PL - CNDOOM

WAD: Doom | Doom 2 | TNT | Plutonia | AV | HR | Scythe | MM | MM2 | Requiem | CE
Category: speed | nmare | max | nm100s | tyson | pacifist | fast | respawn | nomo | misc | built | all
Highscore: ALL | IWAD | PWAD | Country | Continent

< Previous map       Next map >
Remove: wad | map | category | player | allMAP32
MapPlayerTimeDateFilenameCommentsDL
MAP32: CaribbeanJim Leonard1:56.002003-03-16ev32-156.zip - 345
MAP32: CaribbeanVincent Catalaa1:57.002001-09-11ev32-157.zip - 175
MAP32: CaribbeanJim Leonard2:15.002001-09-10ev32-215.zip - 265
MAP32: CaribbeanVincent Catalaa2:19.002001-09-10ev32-219.zip - 211
MAP32: CaribbeanJim Leonard2:31.002001-09-09ev32-231.zip - 286
MAP32: CaribbeanVincent Catalaa2:37.002001-09-09ev32-237.zip - 185
MAP32: CaribbeanJim Leonard3:27.002001-09-08ev32-327.zip - 280
MAP32: CaribbeanChris Ratcliff3:42.002000-10-17ev32-342.zip - 201
MAP32: CaribbeanVincent Catalaa4:24.002000-02-28ev32-424.zip - 161
MAP32: CaribbeanJim Leonard4:03.002002-09-08tn32-403.zip - 316
MAP32: CaribbeanVincent Catalaa4:09.002001-08-10tn32-409.zip - 183
MAP32: CaribbeanChris Ratcliff5:06.002001-08-07tn32-506.zip - 190
MAP32: CaribbeanJim Leonard7:02.002001-08-05tn32-702.zip - 245
MAP32: CaribbeanRadek Pecka4:33.002004-08-19ev32-433.zip - 278
MAP32: CaribbeanYashar Garibzadeh4:38.002001-03-25ev32-438.zip - 404
MAP32: CaribbeanHenning Skogsto4:44.002001-03-01ev32-444.zip - 187
MAP32: CaribbeanYashar Garibzadeh4:50.002001-01-25ev32-450.zip - 198
MAP32: CaribbeanHenning Skogsto4:54.002001-01-01ev32-454.zip - 202
MAP32: CaribbeanChris Ratcliff5:20.002000-12-29ev32-520.zip - 233
MAP32: CaribbeanRadek Pecka5:29.002000-12-28ev32-529.zip - 180
MAP32: CaribbeanAnthony Soto5:45.002000-12-22ev32-545.zip - 149
MAP32: CaribbeanChris Ratcliff6:03.002000-12-22ev32-603.zip - 188
MAP32: CaribbeanChris Ratcliff6:15.002000-12-22ev32-615.zip - 213
MAP32: CaribbeanAnthony Soto6:24.002000-12-10ev32-624.zip - 136
MAP32: CaribbeanChris Ratcliff7:29.002000-10-19ev32-729.zip - 218
MAP32: CaribbeanChris Ratcliff8:12.002000-10-06ev32-812.zip - 188
MAP32: CaribbeanAnthony Soto11:29.002000-10-02ev321129.zip - 136
MAP32: CaribbeanAnthony Soto13:03.002000-10-01ev321303.zip - 136
MAP32: CaribbeanJim Leonard5:11.002002-09-08es32-511.zip - 343
MAP32: CaribbeanChris Ratcliff5:41.002001-11-30es32-541.zip - 233
MAP32: CaribbeanDrew DeVore3:42.002003-04-26ep32-342.zip - 310
MAP32: CaribbeanChris Ratcliff6:27.002001-10-29ef32-627.zip - 301
MAP32: CaribbeanChris Ratcliff7:34.002001-01-21ef32-734.zip - 214
MAP32: CaribbeanChris Ratcliff9:42.002000-11-26ef32-942.zip - 229
MAP32: CaribbeanKai-Uwe Humpert12:12.001996-12-31tnt32-gm.zip - 196
MAP32: CaribbeanChris Ratcliff5:22.002001-10-29er32-522.zip - 335
Remove: wad | map | category | player | all